sensor_id;sensor_type;location;lat;lon;timestamp;P1;durP1;ratioP1;P2;durP2;ratioP2
72684;SDS011;61365;52.162;4.500;2023-02-20T00:00:26;17.88;;;8.25;;
72684;SDS011;61365;52.162;4.500;2023-02-20T00:02:56;28.67;;;8.55;;
72684;SDS011;61365;52.162;4.500;2023-02-20T00:05:23;23.75;;;8.25;;
72684;SDS011;61365;52.162;4.500;2023-02-20T00:07:50;16.95;;;8.18;;
72684;SDS011;61365;52.162;4.500;2023-02-20T00:10:16;23.58;;;9.05;;
72684;SDS011;61365;52.162;4.500;2023-02-20T00:12:43;26.95;;;8.43;;
72684;SDS011;61365;52.162;4.500;2023-02-20T00:15:11;19.58;;;7.75;;
72684;SDS011;61365;52.162;4.500;2023-02-20T00:17:43;21.13;;;7.70;;
72684;SDS011;61365;52.162;4.500;2023-02-20T00:20:15;23.33;;;7.88;;
72684;SDS011;61365;52.162;4.500;2023-02-20T00:22:44;22.80;;;8.20;;
72684;SDS011;61365;52.162;4.500;2023-02-20T00:25:11;22.88;;;8.48;;
72684;SDS011;61365;52.162;4.500;2023-02-20T00:27:40;21.27;;;7.90;;
72684;SDS011;61365;52.162;4.500;2023-02-20T00:30:13;22.35;;;8.75;;
72684;SDS011;61365;52.162;4.500;2023-02-20T00:32:44;21.48;;;8.75;;
72684;SDS011;61365;52.162;4.500;2023-02-20T00:35:12;25.58;;;9.02;;
72684;SDS011;61365;52.162;4.500;2023-02-20T00:37:40;28.52;;;9.32;;
72684;SDS011;61365;52.162;4.500;2023-02-20T00:40:06;16.23;;;7.22;;
72684;SDS011;61365;52.162;4.500;2023-02-20T00:42:35;31.00;;;7.82;;
72684;SDS011;61365;52.162;4.500;2023-02-20T00:45:01;28.00;;;8.38;;
72684;SDS011;61365;52.162;4.500;2023-02-20T00:47:29;19.40;;;6.80;;
72684;SDS011;61365;52.162;4.500;2023-02-20T00:49:55;34.17;;;8.32;;
72684;SDS011;61365;52.162;4.500;2023-02-20T00:52:22;25.77;;;7.00;;
72684;SDS011;61365;52.162;4.500;2023-02-20T00:54:48;28.85;;;6.85;;
72684;SDS011;61365;52.162;4.500;2023-02-20T00:57:15;33.10;;;8.82;;
72684;SDS011;61365;52.162;4.500;2023-02-20T00:59:41;29.95;;;7.70;;
72684;SDS011;61365;52.162;4.500;2023-02-20T01:02:08;20.40;;;7.13;;
72684;SDS011;61365;52.162;4.500;2023-02-20T01:04:34;23.95;;;7.60;;
72684;SDS011;61365;52.162;4.500;2023-02-20T01:07:01;33.25;;;8.82;;
72684;SDS011;61365;52.162;4.500;2023-02-20T01:09:27;28.60;;;7.53;;
72684;SDS011;61365;52.162;4.500;2023-02-20T01:11:54;29.38;;;7.90;;
72684;SDS011;61365;52.162;4.500;2023-02-20T01:14:20;25.25;;;7.53;;
72684;SDS011;61365;52.162;4.500;2023-02-20T01:16:48;31.25;;;6.68;;
72684;SDS011;61365;52.162;4.500;2023-02-20T01:19:18;28.02;;;6.78;;
72684;SDS011;61365;52.162;4.500;2023-02-20T01:21:46;31.15;;;7.75;;
72684;SDS011;61365;52.162;4.500;2023-02-20T01:24:16;31.73;;;8.05;;
72684;SDS011;61365;52.162;4.500;2023-02-20T01:26:45;33.50;;;7.72;;
72684;SDS011;61365;52.162;4.500;2023-02-20T01:29:13;29.98;;;6.68;;
72684;SDS011;61365;52.162;4.500;2023-02-20T01:31:45;35.85;;;7.32;;
72684;SDS011;61365;52.162;4.500;2023-02-20T01:34:17;30.85;;;7.28;;
72684;SDS011;61365;52.162;4.500;2023-02-20T01:36:46;27.20;;;5.80;;
72684;SDS011;61365;52.162;4.500;2023-02-20T01:39:20;26.25;;;6.70;;
72684;SDS011;61365;52.162;4.500;2023-02-20T01:41:53;27.08;;;5.72;;
72684;SDS011;61365;52.162;4.500;2023-02-20T01:44:27;28.05;;;6.28;;
72684;SDS011;61365;52.162;4.500;2023-02-20T01:46:57;32.50;;;7.13;;
72684;SDS011;61365;52.162;4.500;2023-02-20T01:49:27;30.58;;;7.10;;
72684;SDS011;61365;52.162;4.500;2023-02-20T01:52:02;33.55;;;7.38;;
72684;SDS011;61365;52.162;4.500;2023-02-20T01:54:50;33.80;;;7.20;;
72684;SDS011;61365;52.162;4.500;2023-02-20T01:57:22;29.75;;;7.30;;
72684;SDS011;61365;52.162;4.500;2023-02-20T01:59:54;35.72;;;8.30;;
72684;SDS011;61365;52.162;4.500;2023-02-20T02:02:27;40.92;;;9.45;;
72684;SDS011;61365;52.162;4.500;2023-02-20T02:04:56;34.75;;;8.73;;
72684;SDS011;61365;52.162;4.500;2023-02-20T02:07:23;32.85;;;7.70;;
72684;SDS011;61365;52.162;4.500;2023-02-20T02:09:57;32.67;;;7.05;;
72684;SDS011;61365;52.162;4.500;2023-02-20T02:12:29;27.95;;;6.97;;
72684;SDS011;61365;52.162;4.500;2023-02-20T02:14:55;39.10;;;7.85;;
72684;SDS011;61365;52.162;4.500;2023-02-20T02:29:43;34.53;;;7.72;;
72684;SDS011;61365;52.162;4.500;2023-02-20T02:33:11;32.38;;;7.13;;
72684;SDS011;61365;52.162;4.500;2023-02-20T02:39:06;38.90;;;7.65;;
72684;SDS011;61365;52.162;4.500;2023-02-20T02:41:59;32.22;;;8.88;;
72684;SDS011;61365;52.162;4.500;2023-02-20T02:47:36;33.38;;;7.70;;
72684;SDS011;61365;52.162;4.500;2023-02-20T02:50:33;34.33;;;7.90;;
72684;SDS011;61365;52.162;4.500;2023-02-20T02:53:04;31.92;;;7.15;;
72684;SDS011;61365;52.162;4.500;2023-02-20T02:55:34;33.78;;;8.45;;
72684;SDS011;61365;52.162;4.500;2023-02-20T02:58:02;34.45;;;7.55;;
72684;SDS011;61365;52.162;4.500;2023-02-20T03:06:00;27.35;;;6.55;;
72684;SDS011;61365;52.162;4.500;2023-02-20T03:11:08;38.28;;;7.30;;
72684;SDS011;61365;52.162;4.500;2023-02-20T03:13:56;26.80;;;6.00;;
72684;SDS011;61365;52.162;4.500;2023-02-20T03:17:30;34.03;;;6.53;;
72684;SDS011;61365;52.162;4.500;2023-02-20T03:20:08;31.35;;;6.43;;
72684;SDS011;61365;52.162;4.500;2023-02-20T03:22:45;24.35;;;6.22;;
72684;SDS011;61365;52.162;4.500;2023-02-20T03:25:26;27.88;;;6.57;;
72684;SDS011;61365;52.162;4.500;2023-02-20T03:28:12;31.92;;;5.93;;
72684;SDS011;61365;52.162;4.500;2023-02-20T03:30:51;26.40;;;5.32;;
72684;SDS011;61365;52.162;4.500;2023-02-20T03:33:44;20.90;;;6.40;;
72684;SDS011;61365;52.162;4.500;2023-02-20T03:37:13;27.88;;;5.93;;
72684;SDS011;61365;52.162;4.500;2023-02-20T03:40:05;34.78;;;6.78;;
72684;SDS011;61365;52.162;4.500;2023-02-20T03:42:55;24.30;;;6.40;;
72684;SDS011;61365;52.162;4.500;2023-02-20T03:45:50;23.35;;;4.72;;
72684;SDS011;61365;52.162;4.500;2023-02-20T03:48:27;19.83;;;4.78;;
72684;SDS011;61365;52.162;4.500;2023-02-20T03:51:23;28.92;;;6.75;;
72684;SDS011;61365;52.162;4.500;2023-02-20T03:53:50;28.15;;;6.22;;
72684;SDS011;61365;52.162;4.500;2023-02-20T03:56:19;22.48;;;5.72;;
72684;SDS011;61365;52.162;4.500;2023-02-20T03:58:57;27.95;;;6.00;;
72684;SDS011;61365;52.162;4.500;2023-02-20T04:01:32;28.90;;;6.72;;
72684;SDS011;61365;52.162;4.500;2023-02-20T04:04:04;25.10;;;6.32;;
72684;SDS011;61365;52.162;4.500;2023-02-20T04:06:39;28.67;;;7.45;;
72684;SDS011;61365;52.162;4.500;2023-02-20T04:09:09;28.75;;;6.60;;
72684;SDS011;61365;52.162;4.500;2023-02-20T04:11:47;27.30;;;7.18;;
72684;SDS011;61365;52.162;4.500;2023-02-20T04:14:20;36.38;;;7.75;;
72684;SDS011;61365;52.162;4.500;2023-02-20T04:16:54;34.05;;;8.85;;
72684;SDS011;61365;52.162;4.500;2023-02-20T04:19:26;35.70;;;8.80;;
72684;SDS011;61365;52.162;4.500;2023-02-20T04:21:53;33.42;;;7.20;;
72684;SDS011;61365;52.162;4.500;2023-02-20T04:24:34;32.83;;;7.53;;
72684;SDS011;61365;52.162;4.500;2023-02-20T04:27:09;29.75;;;8.20;;
72684;SDS011;61365;52.162;4.500;2023-02-20T04:29:37;26.20;;;7.07;;
72684;SDS011;61365;52.162;4.500;2023-02-20T04:32:03;28.80;;;8.25;;
72684;SDS011;61365;52.162;4.500;2023-02-20T04:34:30;26.42;;;7.75;;
72684;SDS011;61365;52.162;4.500;2023-02-20T04:37:04;25.08;;;6.97;;
72684;SDS011;61365;52.162;4.500;2023-02-20T04:39:34;31.40;;;7.10;;
72684;SDS011;61365;52.162;4.500;2023-02-20T04:42:01;21.08;;;6.78;;
72684;SDS011;61365;52.162;4.500;2023-02-20T04:44:27;31.58;;;8.40;;
72684;SDS011;61365;52.162;4.500;2023-02-20T04:46:57;31.58;;;7.30;;
72684;SDS011;61365;52.162;4.500;2023-02-20T04:49:30;31.38;;;7.82;;
72684;SDS011;61365;52.162;4.500;2023-02-20T04:51:57;25.35;;;7.50;;
72684;SDS011;61365;52.162;4.500;2023-02-20T04:54:24;23.83;;;7.53;;
72684;SDS011;61365;52.162;4.500;2023-02-20T04:56:52;26.27;;;7.95;;
72684;SDS011;61365;52.162;4.500;2023-02-20T04:59:18;21.65;;;7.20;;
72684;SDS011;61365;52.162;4.500;2023-02-20T05:01:45;22.75;;;8.02;;
72684;SDS011;61365;52.162;4.500;2023-02-20T05:04:14;25.85;;;8.20;;
72684;SDS011;61365;52.162;4.500;2023-02-20T05:06:42;27.55;;;8.45;;
72684;SDS011;61365;52.162;4.500;2023-02-20T05:09:13;30.85;;;9.70;;
72684;SDS011;61365;52.162;4.500;2023-02-20T05:11:40;31.45;;;8.95;;
72684;SDS011;61365;52.162;4.500;2023-02-20T05:14:06;32.95;;;8.88;;
72684;SDS011;61365;52.162;4.500;2023-02-20T05:16:35;31.75;;;8.95;;
72684;SDS011;61365;52.162;4.500;2023-02-20T05:19:03;30.17;;;8.77;;
72684;SDS011;61365;52.162;4.500;2023-02-20T05:21:30;32.38;;;9.68;;
72684;SDS011;61365;52.162;4.500;2023-02-20T05:24:15;34.70;;;10.15;;
72684;SDS011;61365;52.162;4.500;2023-02-20T05:26:42;35.08;;;10.02;;
72684;SDS011;61365;52.162;4.500;2023-02-20T05:29:08;29.00;;;9.93;;
72684;SDS011;61365;52.162;4.500;2023-02-20T05:31:37;30.42;;;9.98;;
72684;SDS011;61365;52.162;4.500;2023-02-20T05:34:05;27.45;;;9.57;;
72684;SDS011;61365;52.162;4.500;2023-02-20T05:36:33;26.10;;;9.82;;
72684;SDS011;61365;52.162;4.500;2023-02-20T05:39:00;36.47;;;10.25;;
72684;SDS011;61365;52.162;4.500;2023-02-20T05:41:26;26.67;;;8.88;;
72684;SDS011;61365;52.162;4.500;2023-02-20T05:43:53;28.48;;;10.35;;
72684;SDS011;61365;52.162;4.500;2023-02-20T05:46:24;30.95;;;9.80;;
72684;SDS011;61365;52.162;4.500;2023-02-20T05:48:53;27.63;;;8.98;;
72684;SDS011;61365;52.162;4.500;2023-02-20T05:53:52;30.60;;;8.95;;
72684;SDS011;61365;52.162;4.500;2023-02-20T05:56:19;24.25;;;8.88;;
72684;SDS011;61365;52.162;4.500;2023-02-20T05:58:46;28.85;;;9.65;;
72684;SDS011;61365;52.162;4.500;2023-02-20T06:01:23;26.95;;;8.88;;
72684;SDS011;61365;52.162;4.500;2023-02-20T06:03:52;28.80;;;9.02;;
72684;SDS011;61365;52.162;4.500;2023-02-20T06:06:19;26.60;;;8.90;;
72684;SDS011;61365;52.162;4.500;2023-02-20T06:08:46;31.13;;;9.35;;
72684;SDS011;61365;52.162;4.500;2023-02-20T06:11:14;27.33;;;7.65;;
72684;SDS011;61365;52.162;4.500;2023-02-20T06:13:42;33.97;;;9.25;;
72684;SDS011;61365;52.162;4.500;2023-02-20T06:16:10;23.67;;;7.53;;
72684;SDS011;61365;52.162;4.500;2023-02-20T06:18:39;28.95;;;8.63;;
72684;SDS011;61365;52.162;4.500;2023-02-20T06:21:07;22.65;;;6.68;;
72684;SDS011;61365;52.162;4.500;2023-02-20T06:23:36;32.45;;;9.43;;
72684;SDS011;61365;52.162;4.500;2023-02-20T06:26:04;27.88;;;8.73;;
72684;SDS011;61365;52.162;4.500;2023-02-20T06:28:32;27.30;;;8.10;;
72684;SDS011;61365;52.162;4.500;2023-02-20T06:30:59;22.15;;;7.90;;
72684;SDS011;61365;52.162;4.500;2023-02-20T06:33:26;28.98;;;9.00;;
72684;SDS011;61365;52.162;4.500;2023-02-20T06:35:52;26.63;;;10.02;;
72684;SDS011;61365;52.162;4.500;2023-02-20T06:38:19;31.33;;;9.90;;
72684;SDS011;61365;52.162;4.500;2023-02-20T06:40:45;29.38;;;9.80;;
72684;SDS011;61365;52.162;4.500;2023-02-20T06:43:11;26.60;;;9.80;;
72684;SDS011;61365;52.162;4.500;2023-02-20T06:45:38;31.38;;;9.85;;
72684;SDS011;61365;52.162;4.500;2023-02-20T06:48:04;37.53;;;10.68;;
72684;SDS011;61365;52.162;4.500;2023-02-20T06:50:33;31.92;;;10.20;;
72684;SDS011;61365;52.162;4.500;2023-02-20T06:53:00;26.00;;;8.63;;
72684;SDS011;61365;52.162;4.500;2023-02-20T06:55:26;29.33;;;9.68;;
72684;SDS011;61365;52.162;4.500;2023-02-20T06:57:53;33.60;;;11.68;;
72684;SDS011;61365;52.162;4.500;2023-02-20T07:00:19;23.48;;;9.20;;
72684;SDS011;61365;52.162;4.500;2023-02-20T07:02:46;26.02;;;10.20;;
72684;SDS011;61365;52.162;4.500;2023-02-20T07:05:12;33.08;;;10.75;;
72684;SDS011;61365;52.162;4.500;2023-02-20T07:07:38;29.02;;;9.15;;
72684;SDS011;61365;52.162;4.500;2023-02-20T07:10:08;38.78;;;10.30;;
72684;SDS011;61365;52.162;4.500;2023-02-20T07:12:34;40.60;;;11.15;;
72684;SDS011;61365;52.162;4.500;2023-02-20T07:15:04;30.13;;;10.98;;
72684;SDS011;61365;52.162;4.500;2023-02-20T07:17:32;25.08;;;10.25;;
72684;SDS011;61365;52.162;4.500;2023-02-20T07:19:59;29.85;;;10.60;;
72684;SDS011;61365;52.162;4.500;2023-02-20T07:22:25;27.50;;;10.10;;
72684;SDS011;61365;52.162;4.500;2023-02-20T07:24:52;21.63;;;9.77;;
72684;SDS011;61365;52.162;4.500;2023-02-20T07:27:19;23.48;;;9.00;;
72684;SDS011;61365;52.162;4.500;2023-02-20T07:29:46;32.90;;;10.80;;
72684;SDS011;61365;52.162;4.500;2023-02-20T07:32:15;31.33;;;9.85;;
72684;SDS011;61365;52.162;4.500;2023-02-20T07:34:45;28.73;;;9.18;;
72684;SDS011;61365;52.162;4.500;2023-02-20T07:37:13;30.92;;;10.35;;
72684;SDS011;61365;52.162;4.500;2023-02-20T07:39:40;32.47;;;10.52;;
72684;SDS011;61365;52.162;4.500;2023-02-20T07:42:06;33.00;;;10.70;;
72684;SDS011;61365;52.162;4.500;2023-02-20T07:44:33;25.67;;;8.43;;
72684;SDS011;61365;52.162;4.500;2023-02-20T07:47:00;32.13;;;10.77;;
72684;SDS011;61365;52.162;4.500;2023-02-20T07:49:27;33.47;;;10.75;;
72684;SDS011;61365;52.162;4.500;2023-02-20T07:51:53;21.38;;;8.57;;
72684;SDS011;61365;52.162;4.500;2023-02-20T07:54:20;25.65;;;8.85;;
72684;SDS011;61365;52.162;4.500;2023-02-20T07:56:46;32.05;;;11.30;;
72684;SDS011;61365;52.162;4.500;2023-02-20T07:59:12;27.40;;;8.95;;
72684;SDS011;61365;52.162;4.500;2023-02-20T08:01:39;32.13;;;10.23;;
72684;SDS011;61365;52.162;4.500;2023-02-20T08:04:05;26.80;;;9.52;;
72684;SDS011;61365;52.162;4.500;2023-02-20T08:06:32;24.65;;;9.35;;
72684;SDS011;61365;52.162;4.500;2023-02-20T08:08:58;27.42;;;9.32;;
72684;SDS011;61365;52.162;4.500;2023-02-20T08:11:24;26.75;;;9.88;;
72684;SDS011;61365;52.162;4.500;2023-02-20T08:13:51;26.75;;;9.65;;
72684;SDS011;61365;52.162;4.500;2023-02-20T08:16:20;19.65;;;8.20;;
72684;SDS011;61365;52.162;4.500;2023-02-20T08:18:47;22.67;;;7.78;;
72684;SDS011;61365;52.162;4.500;2023-02-20T08:21:14;24.90;;;8.52;;
72684;SDS011;61365;52.162;4.500;2023-02-20T08:23:40;17.25;;;7.80;;
72684;SDS011;61365;52.162;4.500;2023-02-20T08:26:06;24.77;;;7.85;;
72684;SDS011;61365;52.162;4.500;2023-02-20T08:28:32;17.70;;;7.10;;
72684;SDS011;61365;52.162;4.500;2023-02-20T08:30:59;19.67;;;7.32;;
72684;SDS011;61365;52.162;4.500;2023-02-20T08:33:25;20.42;;;7.63;;
72684;SDS011;61365;52.162;4.500;2023-02-20T08:35:52;18.80;;;6.97;;
72684;SDS011;61365;52.162;4.500;2023-02-20T08:38:24;21.45;;;7.70;;
72684;SDS011;61365;52.162;4.500;2023-02-20T08:41:01;19.48;;;7.25;;
72684;SDS011;61365;52.162;4.500;2023-02-20T08:43:36;16.75;;;7.68;;
72684;SDS011;61365;52.162;4.500;2023-02-20T08:46:05;18.55;;;6.25;;
72684;SDS011;61365;52.162;4.500;2023-02-20T08:48:32;23.23;;;6.90;;
72684;SDS011;61365;52.162;4.500;2023-02-20T08:50:59;16.20;;;6.93;;
72684;SDS011;61365;52.162;4.500;2023-02-20T08:53:26;17.85;;;6.07;;
72684;SDS011;61365;52.162;4.500;2023-02-20T08:55:52;19.77;;;6.70;;
72684;SDS011;61365;52.162;4.500;2023-02-20T08:58:20;26.83;;;7.55;;
72684;SDS011;61365;52.162;4.500;2023-02-20T09:00:48;20.73;;;5.95;;
72684;SDS011;61365;52.162;4.500;2023-02-20T09:03:15;15.38;;;6.07;;
72684;SDS011;61365;52.162;4.500;2023-02-20T09:05:42;17.63;;;5.75;;
72684;SDS011;61365;52.162;4.500;2023-02-20T09:08:09;18.13;;;6.10;;
72684;SDS011;61365;52.162;4.500;2023-02-20T09:10:36;18.05;;;5.70;;
72684;SDS011;61365;52.162;4.500;2023-02-20T09:13:02;17.77;;;6.47;;
72684;SDS011;61365;52.162;4.500;2023-02-20T09:15:29;21.60;;;6.70;;
72684;SDS011;61365;52.162;4.500;2023-02-20T09:17:56;17.23;;;5.22;;
72684;SDS011;61365;52.162;4.500;2023-02-20T09:20:22;14.68;;;4.85;;
72684;SDS011;61365;52.162;4.500;2023-02-20T09:22:49;17.02;;;5.05;;
72684;SDS011;61365;52.162;4.500;2023-02-20T09:25:16;13.57;;;4.85;;
72684;SDS011;61365;52.162;4.500;2023-02-20T09:27:43;13.10;;;4.60;;
72684;SDS011;61365;52.162;4.500;2023-02-20T09:30:10;15.10;;;4.88;;
72684;SDS011;61365;52.162;4.500;2023-02-20T09:32:44;15.75;;;4.95;;
72684;SDS011;61365;52.162;4.500;2023-02-20T09:35:19;19.50;;;5.43;;
72684;SDS011;61365;52.162;4.500;2023-02-20T09:37:50;14.35;;;4.85;;
72684;SDS011;61365;52.162;4.500;2023-02-20T09:40:20;17.42;;;4.82;;
72684;SDS011;61365;52.162;4.500;2023-02-20T09:45:39;15.90;;;3.95;;
72684;SDS011;61365;52.162;4.500;2023-02-20T09:51:04;18.13;;;5.00;;
72684;SDS011;61365;52.162;4.500;2023-02-20T09:53:48;13.30;;;4.85;;
72684;SDS011;61365;52.162;4.500;2023-02-20T09:56:27;15.25;;;4.85;;
72684;SDS011;61365;52.162;4.500;2023-02-20T09:59:09;16.77;;;4.50;;
72684;SDS011;61365;52.162;4.500;2023-02-20T10:01:51;20.30;;;5.38;;
72684;SDS011;61365;52.162;4.500;2023-02-20T10:04:21;13.27;;;4.85;;
72684;SDS011;61365;52.162;4.500;2023-02-20T10:06:59;16.20;;;4.95;;
72684;SDS011;61365;52.162;4.500;2023-02-20T10:09:52;13.82;;;5.32;;
72684;SDS011;61365;52.162;4.500;2023-02-20T10:17:49;13.25;;;4.82;;
72684;SDS011;61365;52.162;4.500;2023-02-20T10:32:03;10.93;;;4.60;;
72684;SDS011;61365;52.162;4.500;2023-02-20T10:34:52;15.63;;;4.90;;
72684;SDS011;61365;52.162;4.500;2023-02-20T10:37:25;15.68;;;4.97;;
72684;SDS011;61365;52.162;4.500;2023-02-20T10:48:29;13.77;;;4.53;;
72684;SDS011;61365;52.162;4.500;2023-02-20T10:51:04;18.20;;;4.80;;
72684;SDS011;61365;52.162;4.500;2023-02-20T10:53:45;12.02;;;4.00;;
72684;SDS011;61365;52.162;4.500;2023-02-20T10:59:28;13.32;;;3.90;;
72684;SDS011;61365;52.162;4.500;2023-02-20T11:02:10;16.25;;;4.88;;
72684;SDS011;61365;52.162;4.500;2023-02-20T11:04:56;13.35;;;4.18;;
72684;SDS011;61365;52.162;4.500;2023-02-20T11:07:32;11.88;;;3.95;;
72684;SDS011;61365;52.162;4.500;2023-02-20T11:09:59;11.48;;;4.40;;
72684;SDS011;61365;52.162;4.500;2023-02-20T11:12:29;14.50;;;4.32;;
72684;SDS011;61365;52.162;4.500;2023-02-20T11:15:14;22.52;;;4.72;;
72684;SDS011;61365;52.162;4.500;2023-02-20T11:17:45;17.70;;;3.90;;
72684;SDS011;61365;52.162;4.500;2023-02-20T11:28:56;14.77;;;4.10;;
72684;SDS011;61365;52.162;4.500;2023-02-20T11:31:27;17.20;;;3.67;;
72684;SDS011;61365;52.162;4.500;2023-02-20T11:33:55;10.52;;;3.35;;
72684;SDS011;61365;52.162;4.500;2023-02-20T11:36:23;15.18;;;4.00;;
72684;SDS011;61365;52.162;4.500;2023-02-20T11:38:59;11.38;;;3.38;;
72684;SDS011;61365;52.162;4.500;2023-02-20T11:41:35;11.43;;;3.38;;
72684;SDS011;61365;52.162;4.500;2023-02-20T11:46:35;14.00;;;3.73;;
72684;SDS011;61365;52.162;4.500;2023-02-20T11:49:03;9.10;;;3.30;;
72684;SDS011;61365;52.162;4.500;2023-02-20T11:51:49;14.18;;;3.67;;
72684;SDS011;61365;52.162;4.500;2023-02-20T11:54:16;17.27;;;3.95;;
72684;SDS011;61365;52.162;4.500;2023-02-20T11:56:54;13.23;;;3.63;;
72684;SDS011;61365;52.162;4.500;2023-02-20T11:59:36;10.02;;;3.35;;
72684;SDS011;61365;52.162;4.500;2023-02-20T12:02:39;9.95;;;3.10;;
72684;SDS011;61365;52.162;4.500;2023-02-20T12:05:11;14.82;;;3.50;;
72684;SDS011;61365;52.162;4.500;2023-02-20T12:12:55;13.98;;;3.58;;
72684;SDS011;61365;52.162;4.500;2023-02-20T12:15:24;13.88;;;3.20;;
72684;SDS011;61365;52.162;4.500;2023-02-20T12:20:32;12.98;;;2.90;;
72684;SDS011;61365;52.162;4.500;2023-02-20T12:23:32;9.88;;;3.25;;
72684;SDS011;61365;52.162;4.500;2023-02-20T12:41:04;11.73;;;3.10;;
72684;SDS011;61365;52.162;4.500;2023-02-20T12:44:03;10.25;;;2.72;;
72684;SDS011;61365;52.162;4.500;2023-02-20T12:46:41;17.85;;;3.42;;
72684;SDS011;61365;52.162;4.500;2023-02-20T12:56:01;10.35;;;2.53;;
72684;SDS011;61365;52.162;4.500;2023-02-20T13:01:48;8.63;;;3.10;;
72684;SDS011;61365;52.162;4.500;2023-02-20T13:04:26;13.07;;;3.47;;
72684;SDS011;61365;52.162;4.500;2023-02-20T13:12:50;7.35;;;2.80;;
72684;SDS011;61365;52.162;4.500;2023-02-20T13:20:30;12.48;;;2.97;;
72684;SDS011;61365;52.162;4.500;2023-02-20T13:23:23;11.27;;;3.55;;
72684;SDS011;61365;52.162;4.500;2023-02-20T13:25:57;11.40;;;3.95;;
72684;SDS011;61365;52.162;4.500;2023-02-20T13:28:26;14.15;;;4.07;;
72684;SDS011;61365;52.162;4.500;2023-02-20T13:31:08;10.40;;;3.67;;
72684;SDS011;61365;52.162;4.500;2023-02-20T13:36:40;12.30;;;3.85;;
72684;SDS011;61365;52.162;4.500;2023-02-20T13:42:02;10.65;;;2.83;;
72684;SDS011;61365;52.162;4.500;2023-02-20T13:44:50;11.98;;;3.67;;
72684;SDS011;61365;52.162;4.500;2023-02-20T14:03:26;9.48;;;3.15;;
72684;SDS011;61365;52.162;4.500;2023-02-20T14:06:04;9.70;;;3.83;;
72684;SDS011;61365;52.162;4.500;2023-02-20T14:08:43;5.80;;;2.25;;
72684;SDS011;61365;52.162;4.500;2023-02-20T14:14:07;10.18;;;3.33;;
72684;SDS011;61365;52.162;4.500;2023-02-20T14:16:45;13.07;;;3.40;;
72684;SDS011;61365;52.162;4.500;2023-02-20T14:19:19;8.85;;;3.13;;
72684;SDS011;61365;52.162;4.500;2023-02-20T14:21:49;12.27;;;3.65;;
72684;SDS011;61365;52.162;4.500;2023-02-20T14:26:49;9.55;;;2.97;;
72684;SDS011;61365;52.162;4.500;2023-02-20T14:29:22;7.50;;;2.78;;
72684;SDS011;61365;52.162;4.500;2023-02-20T14:31:55;13.07;;;3.00;;
72684;SDS011;61365;52.162;4.500;2023-02-20T14:40:08;9.63;;;3.20;;
72684;SDS011;61365;52.162;4.500;2023-02-20T14:42:49;9.75;;;3.17;;
72684;SDS011;61365;52.162;4.500;2023-02-20T14:45:20;10.75;;;3.00;;
72684;SDS011;61365;52.162;4.500;2023-02-20T14:47:55;12.30;;;3.42;;
72684;SDS011;61365;52.162;4.500;2023-02-20T14:50:31;13.70;;;3.47;;
72684;SDS011;61365;52.162;4.500;2023-02-20T14:53:11;11.73;;;3.42;;
72684;SDS011;61365;52.162;4.500;2023-02-20T14:55:42;10.77;;;3.72;;
72684;SDS011;61365;52.162;4.500;2023-02-20T14:58:10;14.32;;;3.42;;
72684;SDS011;61365;52.162;4.500;2023-02-20T15:00:41;8.57;;;3.88;;
72684;SDS011;61365;52.162;4.500;2023-02-20T15:03:10;12.13;;;3.55;;
72684;SDS011;61365;52.162;4.500;2023-02-20T15:05:45;13.63;;;4.18;;
72684;SDS011;61365;52.162;4.500;2023-02-20T15:08:20;14.70;;;3.38;;
72684;SDS011;61365;52.162;4.500;2023-02-20T15:10:53;11.90;;;3.92;;
72684;SDS011;61365;52.162;4.500;2023-02-20T15:13:25;12.18;;;4.03;;
72684;SDS011;61365;52.162;4.500;2023-02-20T15:16:03;14.85;;;4.10;;
72684;SDS011;61365;52.162;4.500;2023-02-20T15:18:40;13.02;;;3.30;;
72684;SDS011;61365;52.162;4.500;2023-02-20T15:21:12;11.55;;;3.50;;
72684;SDS011;61365;52.162;4.500;2023-02-20T15:23:54;14.75;;;3.30;;
72684;SDS011;61365;52.162;4.500;2023-02-20T15:26:36;16.25;;;3.58;;
72684;SDS011;61365;52.162;4.500;2023-02-20T15:34:27;10.63;;;3.85;;
72684;SDS011;61365;52.162;4.500;2023-02-20T15:36:58;12.18;;;3.42;;
72684;SDS011;61365;52.162;4.500;2023-02-20T15:39:25;11.80;;;3.67;;
72684;SDS011;61365;52.162;4.500;2023-02-20T15:41:52;10.73;;;3.67;;
72684;SDS011;61365;52.162;4.500;2023-02-20T15:44:18;14.45;;;4.05;;
72684;SDS011;61365;52.162;4.500;2023-02-20T15:46:45;10.65;;;3.65;;
72684;SDS011;61365;52.162;4.500;2023-02-20T15:49:11;12.18;;;3.97;;
72684;SDS011;61365;52.162;4.500;2023-02-20T15:51:39;10.43;;;3.70;;
72684;SDS011;61365;52.162;4.500;2023-02-20T15:54:10;9.18;;;3.83;;
72684;SDS011;61365;52.162;4.500;2023-02-20T15:56:42;13.18;;;4.38;;
72684;SDS011;61365;52.162;4.500;2023-02-20T15:59:09;13.93;;;3.20;;
72684;SDS011;61365;52.162;4.500;2023-02-20T16:01:38;14.52;;;3.30;;
72684;SDS011;61365;52.162;4.500;2023-02-20T16:04:06;15.40;;;3.50;;
72684;SDS011;61365;52.162;4.500;2023-02-20T16:06:33;16.60;;;4.00;;
72684;SDS011;61365;52.162;4.500;2023-02-20T16:09:00;13.38;;;4.28;;
72684;SDS011;61365;52.162;4.500;2023-02-20T16:11:29;14.43;;;4.60;;
72684;SDS011;61365;52.162;4.500;2023-02-20T16:14:08;13.25;;;4.00;;
72684;SDS011;61365;52.162;4.500;2023-02-20T16:16:41;23.17;;;4.78;;
72684;SDS011;61365;52.162;4.500;2023-02-20T16:19:12;21.88;;;4.53;;
72684;SDS011;61365;52.162;4.500;2023-02-20T16:21:45;15.32;;;4.68;;
72684;SDS011;61365;52.162;4.500;2023-02-20T16:24:12;15.15;;;3.75;;
72684;SDS011;61365;52.162;4.500;2023-02-20T16:26:42;13.10;;;4.60;;
72684;SDS011;61365;52.162;4.500;2023-02-20T16:29:16;16.10;;;4.60;;
72684;SDS011;61365;52.162;4.500;2023-02-20T16:34:23;17.30;;;4.30;;
72684;SDS011;61365;52.162;4.500;2023-02-20T16:36:53;12.52;;;4.15;;
72684;SDS011;61365;52.162;4.500;2023-02-20T16:39:19;11.93;;;4.18;;
72684;SDS011;61365;52.162;4.500;2023-02-20T16:41:46;18.10;;;5.53;;
72684;SDS011;61365;52.162;4.500;2023-02-20T16:44:14;21.63;;;5.88;;
72684;SDS011;61365;52.162;4.500;2023-02-20T16:46:49;16.83;;;4.57;;
72684;SDS011;61365;52.162;4.500;2023-02-20T16:49:15;10.77;;;4.07;;
72684;SDS011;61365;52.162;4.500;2023-02-20T16:51:42;15.00;;;4.05;;
72684;SDS011;61365;52.162;4.500;2023-02-20T16:54:24;13.68;;;4.15;;
72684;SDS011;61365;52.162;4.500;2023-02-20T16:56:50;10.57;;;4.20;;
72684;SDS011;61365;52.162;4.500;2023-02-20T16:59:16;14.63;;;4.45;;
72684;SDS011;61365;52.162;4.500;2023-02-20T17:01:43;15.82;;;4.63;;
72684;SDS011;61365;52.162;4.500;2023-02-20T17:04:09;22.33;;;5.50;;
72684;SDS011;61365;52.162;4.500;2023-02-20T17:06:39;14.02;;;4.95;;
72684;SDS011;61365;52.162;4.500;2023-02-20T17:09:05;12.82;;;4.20;;
72684;SDS011;61365;52.162;4.500;2023-02-20T17:11:32;24.25;;;5.47;;
72684;SDS011;61365;52.162;4.500;2023-02-20T17:13:58;18.27;;;4.85;;
72684;SDS011;61365;52.162;4.500;2023-02-20T17:16:24;19.02;;;4.88;;
72684;SDS011;61365;52.162;4.500;2023-02-20T17:18:51;12.75;;;4.32;;
72684;SDS011;61365;52.162;4.500;2023-02-20T17:21:17;14.48;;;5.28;;
72684;SDS011;61365;52.162;4.500;2023-02-20T17:23:43;16.75;;;5.43;;
72684;SDS011;61365;52.162;4.500;2023-02-20T17:26:10;24.35;;;5.40;;
72684;SDS011;61365;52.162;4.500;2023-02-20T17:28:36;14.80;;;4.32;;
72684;SDS011;61365;52.162;4.500;2023-02-20T17:31:03;10.10;;;3.95;;
72684;SDS011;61365;52.162;4.500;2023-02-20T17:33:29;15.20;;;4.50;;
72684;SDS011;61365;52.162;4.500;2023-02-20T17:35:55;19.95;;;5.35;;
72684;SDS011;61365;52.162;4.500;2023-02-20T17:38:22;17.23;;;5.22;;